createdAt,value
2023-01-26T00:01:38.629Z,13.48
2023-01-26T00:04:05.952Z,12.88
2023-01-26T00:06:33.278Z,12.93
2023-01-26T00:09:00.757Z,13.10
2023-01-26T00:11:29.945Z,13.48
2023-01-26T00:14:00.212Z,11.80
2023-01-26T00:16:28.680Z,13.55
2023-01-26T00:18:56.096Z,13.07
2023-01-26T00:21:25.068Z,13.57
2023-01-26T00:23:53.466Z,12.63
2023-01-26T00:26:23.440Z,12.85
2023-01-26T00:28:51.684Z,14.00
2023-01-26T00:31:27.890Z,12.65
2023-01-26T00:33:56.694Z,13.23
2023-01-26T00:36:24.780Z,14.80
2023-01-26T00:38:52.113Z,12.77
2023-01-26T00:41:38.770Z,14.10
2023-01-26T00:44:06.018Z,14.73
2023-01-26T00:46:33.243Z,15.43
2023-01-26T00:49:01.203Z,14.05
2023-01-26T00:51:28.632Z,14.73
2023-01-26T00:53:56.964Z,13.50
2023-01-26T00:56:24.357Z,14.60
2023-01-26T00:58:52.691Z,14.02
2023-01-26T01:01:20.879Z,13.32
2023-01-26T01:03:48.483Z,13.57
2023-01-26T01:06:15.746Z,14.23
2023-01-26T01:12:11.717Z,12.80
2023-01-26T01:14:39.432Z,13.82
2023-01-26T01:17:49.085Z,13.15
2023-01-26T01:20:16.714Z,13.23
2023-01-26T01:22:44.165Z,13.05
2023-01-26T01:25:12.070Z,13.05
2023-01-26T01:27:39.741Z,13.73
2023-01-26T01:30:08.717Z,13.57
2023-01-26T01:32:37.019Z,13.68
2023-01-26T01:35:05.017Z,12.73
2023-01-26T01:37:34.103Z,14.93
2023-01-26T01:40:01.483Z,13.57
2023-01-26T01:42:29.380Z,14.05
2023-01-26T01:45:28.023Z,13.55
2023-01-26T01:47:59.943Z,13.93
2023-01-26T01:50:28.333Z,14.00
2023-01-26T01:52:56.782Z,13.38
2023-01-26T01:55:26.193Z,13.55
2023-01-26T01:58:00.509Z,14.32
2023-01-26T02:00:28.290Z,13.45
2023-01-26T02:03:11.609Z,14.15
2023-01-26T02:06:01.614Z,14.05
2023-01-26T02:08:37.057Z,13.82
2023-01-26T02:11:37.005Z,12.05
2023-01-26T02:14:09.094Z,12.60
2023-01-26T02:16:37.205Z,12.13
2023-01-26T02:19:05.606Z,12.95
2023-01-26T02:21:33.343Z,11.93
2023-01-26T02:24:26.022Z,11.93
2023-01-26T02:26:55.234Z,12.23
2023-01-26T02:29:24.817Z,11.48
2023-01-26T02:31:54.145Z,11.55
2023-01-26T02:34:21.953Z,12.13
2023-01-26T02:37:00.945Z,11.35
2023-01-26T02:39:58.461Z,11.35
2023-01-26T02:42:45.247Z,11.93
2023-01-26T02:45:16.318Z,11.70
2023-01-26T02:47:53.622Z,11.50
2023-01-26T02:50:21.268Z,11.63
2023-01-26T02:52:53.386Z,11.55
2023-01-26T02:55:23.696Z,11.82
2023-01-26T02:57:53.434Z,12.82
2023-01-26T03:00:25.063Z,13.25
2023-01-26T03:02:54.964Z,11.85
2023-01-26T03:05:24.140Z,13.38
2023-01-26T03:07:52.867Z,13.88
2023-01-26T03:10:24.765Z,11.55
2023-01-26T03:12:52.893Z,13.23
2023-01-26T03:15:38.911Z,18.50
2023-01-26T03:18:32.831Z,17.45
2023-01-26T03:21:20.568Z,16.92
2023-01-26T03:24:07.198Z,17.52
2023-01-26T03:26:54.700Z,15.15
2023-01-26T03:29:22.595Z,13.35
2023-01-26T03:31:51.367Z,13.43
2023-01-26T03:34:20.939Z,13.23
2023-01-26T03:36:49.593Z,12.43
2023-01-26T03:39:37.445Z,13.07
2023-01-26T03:42:24.450Z,13.27
2023-01-26T03:45:10.364Z,14.57
2023-01-26T03:47:58.771Z,14.32
2023-01-26T03:50:44.851Z,15.75
2023-01-26T03:53:37.295Z,12.80
2023-01-26T03:56:28.194Z,12.45
2023-01-26T03:59:08.651Z,12.40
2023-01-26T04:01:40.743Z,12.70
2023-01-26T04:04:28.136Z,12.10
2023-01-26T04:07:15.151Z,13.05
2023-01-26T04:09:46.847Z,12.80
2023-01-26T04:12:14.516Z,13.05
2023-01-26T04:15:12.387Z,11.93
2023-01-26T04:17:58.578Z,12.40
2023-01-26T04:20:45.556Z,13.38
2023-01-26T04:23:20.686Z,14.02
2023-01-26T04:25:50.383Z,13.90
2023-01-26T04:28:18.924Z,13.35
2023-01-26T04:30:48.404Z,12.82
2023-01-26T04:33:15.803Z,13.55
2023-01-26T04:35:43.089Z,14.18
2023-01-26T04:38:11.100Z,12.38
2023-01-26T04:40:42.256Z,13.48
2023-01-26T04:43:09.862Z,14.48
2023-01-26T04:45:37.499Z,13.02
2023-01-26T04:48:05.008Z,10.98
2023-01-26T04:50:33.277Z,12.43
2023-01-26T04:53:08.511Z,10.93
2023-01-26T04:55:35.893Z,10.82
2023-01-26T04:58:04.238Z,11.02
2023-01-26T05:00:32.291Z,10.63
2023-01-26T05:03:00.692Z,10.30
2023-01-26T05:05:28.473Z,10.60
2023-01-26T05:07:55.941Z,10.57
2023-01-26T05:10:27.401Z,11.38
2023-01-26T05:13:15.407Z,10.15
2023-01-26T05:15:55.940Z,10.32
2023-01-26T05:18:47.620Z,9.77
2023-01-26T05:21:25.392Z,9.65
2023-01-26T05:23:52.761Z,9.68
2023-01-26T05:26:30.906Z,10.43
2023-01-26T05:29:03.147Z,11.07
2023-01-26T05:31:30.703Z,10.00
2023-01-26T05:33:58.869Z,10.45
2023-01-26T05:36:26.503Z,10.13
2023-01-26T05:38:54.359Z,11.20
2023-01-26T05:41:25.102Z,9.23
2023-01-26T05:44:15.765Z,9.30
2023-01-26T05:46:47.768Z,9.75
2023-01-26T05:49:15.709Z,9.88
2023-01-26T05:51:43.203Z,9.63
2023-01-26T05:54:10.970Z,10.35
2023-01-26T05:56:39.628Z,10.27
2023-01-26T05:59:07.957Z,10.43
2023-01-26T06:01:35.590Z,10.10
2023-01-26T06:04:06.693Z,10.05
2023-01-26T06:06:43.521Z,10.00
2023-01-26T06:09:32.884Z,10.15
2023-01-26T06:12:22.649Z,9.38
2023-01-26T06:14:55.780Z,9.77
2023-01-26T06:17:25.649Z,9.75
2023-01-26T06:19:58.744Z,9.80
2023-01-26T06:22:26.682Z,9.35
2023-01-26T06:24:54.073Z,9.85
2023-01-26T06:27:21.410Z,9.98
2023-01-26T06:29:50.558Z,9.93
2023-01-26T06:32:18.336Z,10.02
2023-01-26T06:34:48.669Z,9.07
2023-01-26T06:37:16.096Z,10.60
2023-01-26T06:39:44.330Z,10.10
2023-01-26T06:42:13.569Z,10.20
2023-01-26T06:44:41.125Z,9.85
2023-01-26T06:47:09.675Z,9.10
2023-01-26T06:49:40.684Z,9.68
2023-01-26T06:52:32.969Z,10.13
2023-01-26T06:55:06.078Z,10.05
2023-01-26T06:57:52.529Z,9.68
2023-01-26T07:01:01.653Z,9.27
2023-01-26T07:03:37.280Z,10.50
2023-01-26T07:06:07.243Z,9.52
2023-01-26T07:08:36.107Z,9.43
2023-01-26T07:11:09.242Z,9.07
2023-01-26T07:13:39.322Z,9.45
2023-01-26T07:16:11.054Z,8.98
2023-01-26T07:18:40.594Z,9.82
2023-01-26T07:21:21.057Z,9.88
2023-01-26T07:23:49.311Z,9.32
2023-01-26T07:26:18.254Z,8.10
2023-01-26T07:28:48.131Z,8.55
2023-01-26T07:31:16.116Z,8.82
2023-01-26T07:33:43.812Z,9.10
2023-01-26T07:36:11.419Z,8.32
2023-01-26T07:38:39.192Z,9.18
2023-01-26T07:41:12.148Z,8.73
2023-01-26T07:43:41.493Z,8.50
2023-01-26T07:46:11.367Z,9.15
2023-01-26T07:48:38.828Z,9.02
2023-01-26T07:51:10.279Z,7.55
2023-01-26T07:53:42.495Z,8.65
2023-01-26T07:56:12.355Z,8.40
2023-01-26T07:58:39.865Z,8.13
2023-01-26T08:01:15.414Z,7.32
2023-01-26T08:03:45.747Z,7.25
2023-01-26T08:06:14.893Z,7.53
2023-01-26T08:08:43.111Z,7.25
2023-01-26T08:11:11.820Z,7.57
2023-01-26T08:13:39.288Z,7.03
2023-01-26T08:16:13.242Z,7.53
2023-01-26T08:18:45.830Z,7.32
2023-01-26T08:21:15.594Z,7.78
2023-01-26T08:23:43.899Z,6.80
2023-01-26T08:26:13.946Z,6.85
2023-01-26T08:28:41.530Z,6.93
2023-01-26T08:31:21.204Z,7.18
2023-01-26T08:33:51.111Z,6.88
2023-01-26T08:36:21.839Z,7.03
2023-01-26T08:38:49.900Z,6.78
2023-01-26T08:41:17.296Z,6.57
2023-01-26T08:43:44.770Z,7.68
2023-01-26T08:46:12.286Z,8.00
2023-01-26T08:48:39.798Z,7.97
2023-01-26T08:51:08.594Z,7.80
2023-01-26T08:53:38.674Z,8.70
2023-01-26T08:56:08.268Z,9.77
2023-01-26T08:58:36.911Z,8.23
2023-01-26T09:01:10.606Z,8.20
2023-01-26T09:03:42.098Z,7.95
2023-01-26T09:06:12.160Z,8.52
2023-01-26T09:08:39.874Z,7.63
2023-01-26T09:11:08.741Z,7.45
2023-01-26T09:13:37.766Z,8.38
2023-01-26T09:16:13.745Z,8.40
2023-01-26T09:18:41.069Z,7.70
2023-01-26T09:21:10.175Z,8.30
2023-01-26T09:23:39.484Z,9.90
2023-01-26T09:26:07.074Z,9.38
2023-01-26T09:28:34.611Z,8.38
2023-01-26T09:31:07.098Z,9.20
2023-01-26T09:33:34.651Z,8.82
2023-01-26T09:36:11.050Z,8.50
2023-01-26T09:38:39.254Z,7.30
2023-01-26T09:41:30.202Z,7.30
2023-01-26T09:44:01.519Z,8.10
2023-01-26T09:46:29.210Z,10.88
2023-01-26T09:49:23.633Z,8.85
2023-01-26T09:52:23.949Z,8.68
2023-01-26T09:54:55.063Z,8.73
2023-01-26T09:57:38.788Z,7.78
2023-01-26T10:00:13.556Z,8.20
2023-01-26T10:02:45.373Z,8.48
2023-01-26T10:05:22.423Z,9.65
2023-01-26T10:07:49.779Z,10.27
2023-01-26T10:10:48.610Z,9.00
2023-01-26T10:13:17.765Z,9.45
2023-01-26T10:15:56.741Z,8.13
2023-01-26T10:18:34.534Z,7.80
2023-01-26T10:21:05.799Z,7.25
2023-01-26T10:23:35.128Z,8.15
2023-01-26T10:26:14.530Z,8.65
2023-01-26T10:28:44.705Z,8.65
2023-01-26T10:31:18.677Z,7.90
2023-01-26T10:33:56.322Z,8.30
2023-01-26T10:36:24.226Z,8.02
2023-01-26T10:38:53.208Z,8.38
2023-01-26T10:41:20.324Z,7.65
2023-01-26T10:44:21.146Z,7.40
2023-01-26T10:47:07.971Z,7.70
2023-01-26T10:49:35.600Z,8.05
2023-01-26T10:52:09.630Z,8.13
2023-01-26T10:54:38.544Z,6.43
2023-01-26T10:57:28.766Z,7.18
2023-01-26T11:00:08.975Z,6.57
2023-01-26T11:02:37.197Z,6.93
2023-01-26T11:05:07.863Z,6.65
2023-01-26T11:07:40.044Z,6.95
2023-01-26T11:10:26.189Z,5.88
2023-01-26T11:13:09.535Z,6.65
2023-01-26T11:15:40.223Z,6.72
2023-01-26T11:18:36.737Z,6.85
2023-01-26T11:21:07.439Z,6.95
2023-01-26T11:23:39.524Z,7.30
2023-01-26T11:26:37.395Z,7.60
2023-01-26T11:29:32.097Z,8.95
2023-01-26T11:32:32.934Z,8.38
2023-01-26T11:35:21.341Z,9.18
2023-01-26T11:38:12.866Z,8.48
2023-01-26T11:40:43.073Z,8.15
2023-01-26T11:43:29.955Z,7.82
2023-01-26T11:46:35.290Z,8.85
2023-01-26T11:49:45.316Z,10.02
2023-01-26T11:52:27.829Z,8.80
2023-01-26T11:55:07.338Z,10.40
2023-01-26T11:57:58.977Z,10.00
2023-01-26T12:00:43.445Z,7.22
2023-01-26T12:03:47.051Z,6.88
2023-01-26T12:06:20.371Z,7.05
2023-01-26T12:08:57.020Z,6.13
2023-01-26T12:11:26.396Z,6.20
2023-01-26T12:14:27.502Z,5.97
2023-01-26T12:17:17.783Z,6.38
2023-01-26T12:20:04.870Z,7.10
2023-01-26T12:22:42.650Z,7.10
2023-01-26T12:25:36.617Z,6.82
2023-01-26T12:28:28.567Z,6.10
2023-01-26T12:31:14.898Z,5.22
2023-01-26T12:33:42.837Z,5.80
2023-01-26T12:36:20.478Z,6.65
2023-01-26T12:39:20.315Z,5.78
2023-01-26T12:41:47.536Z,5.85
2023-01-26T12:44:36.219Z,5.75
2023-01-26T12:47:10.201Z,5.72
2023-01-26T12:49:42.885Z,5.22
2023-01-26T12:52:35.134Z,6.18
2023-01-26T12:55:23.343Z,4.90
2023-01-26T12:58:25.170Z,5.07
2023-01-26T13:01:17.769Z,4.88
2023-01-26T13:04:09.436Z,5.93
2023-01-26T13:06:36.938Z,5.05
2023-01-26T13:09:19.666Z,5.63
2023-01-26T13:11:49.984Z,5.93
2023-01-26T13:14:43.527Z,5.55
2023-01-26T13:17:17.434Z,6.07
2023-01-26T13:19:44.955Z,5.90
2023-01-26T13:22:24.666Z,6.18
2023-01-26T13:25:27.881Z,5.47
2023-01-26T13:27:59.909Z,6.15
2023-01-26T13:30:29.431Z,7.00
2023-01-26T13:33:26.303Z,6.57
2023-01-26T13:35:56.021Z,7.10
2023-01-26T13:38:37.373Z,7.03
2023-01-26T13:41:10.721Z,6.60
2023-01-26T13:43:44.371Z,6.22
2023-01-26T13:46:23.879Z,7.15
2023-01-26T13:48:53.237Z,7.05
2023-01-26T13:51:32.249Z,5.68
2023-01-26T13:54:13.059Z,6.03
2023-01-26T13:57:04.541Z,5.70
2023-01-26T13:59:33.470Z,5.00
2023-01-26T14:02:00.867Z,5.38
2023-01-26T14:04:32.670Z,5.45
2023-01-26T14:07:04.205Z,4.82
2023-01-26T14:09:34.311Z,5.35
2023-01-26T14:12:05.386Z,5.07
2023-01-26T14:14:37.633Z,5.75
2023-01-26T14:17:24.030Z,4.32
2023-01-26T14:19:51.360Z,6.22
2023-01-26T14:22:20.198Z,4.55
2023-01-26T14:24:50.990Z,5.35
2023-01-26T14:27:39.010Z,4.60
2023-01-26T14:30:35.194Z,4.63
2023-01-26T14:33:08.268Z,4.15
2023-01-26T14:35:35.546Z,4.30
2023-01-26T14:38:07.297Z,6.40
2023-01-26T14:40:34.627Z,5.80
2023-01-26T14:43:02.468Z,5.00
2023-01-26T14:45:32.576Z,5.72
2023-01-26T14:48:06.620Z,4.32
2023-01-26T14:50:36.595Z,5.28
2023-01-26T14:53:04.867Z,4.95
2023-01-26T14:55:35.831Z,5.60
2023-01-26T14:58:13.967Z,5.38
2023-01-26T15:00:41.287Z,5.05
2023-01-26T15:03:15.178Z,5.95
2023-01-26T15:05:42.572Z,5.22
2023-01-26T15:08:24.717Z,6.38
2023-01-26T15:11:18.739Z,7.72
2023-01-26T15:13:48.486Z,7.30
2023-01-26T15:16:21.767Z,5.88
2023-01-26T15:19:05.013Z,6.78
2023-01-26T15:21:35.471Z,7.45
2023-01-26T15:24:04.271Z,5.75
2023-01-26T15:26:34.161Z,6.18
2023-01-26T15:29:27.012Z,6.70
2023-01-26T15:31:56.685Z,6.95
2023-01-26T15:34:35.670Z,6.40
2023-01-26T15:37:24.823Z,6.40
2023-01-26T15:39:52.125Z,6.72
2023-01-26T15:42:31.575Z,6.57
2023-01-26T15:44:59.038Z,6.57
2023-01-26T15:47:26.545Z,6.15
2023-01-26T15:49:54.155Z,6.45
2023-01-26T15:52:25.425Z,7.03
2023-01-26T15:54:54.187Z,6.95
2023-01-26T15:57:21.748Z,7.32
2023-01-26T15:59:49.116Z,8.13
2023-01-26T16:02:22.624Z,6.65
2023-01-26T16:07:20.076Z,7.43
2023-01-26T16:09:49.838Z,7.28
2023-01-26T16:12:31.203Z,7.50
2023-01-26T16:14:59.912Z,7.13
2023-01-26T16:17:27.148Z,8.02
2023-01-26T16:19:54.563Z,8.63
2023-01-26T16:22:21.890Z,8.85
2023-01-26T16:24:49.574Z,10.10
2023-01-26T16:27:16.989Z,10.90
2023-01-26T16:29:44.207Z,11.07
2023-01-26T16:32:45.078Z,11.25
2023-01-26T16:35:15.088Z,10.75
2023-01-26T16:37:42.814Z,10.23
2023-01-26T16:40:14.835Z,10.82
2023-01-26T16:42:45.631Z,11.23
2023-01-26T16:45:18.895Z,12.52
2023-01-26T16:47:50.693Z,12.05
2023-01-26T16:50:18.640Z,12.50
2023-01-26T16:52:47.289Z,12.98
2023-01-26T16:55:16.948Z,13.30
2023-01-26T16:57:49.741Z,12.88
2023-01-26T17:00:21.489Z,13.30
2023-01-26T17:02:51.814Z,13.32
2023-01-26T17:05:22.677Z,13.43
2023-01-26T17:07:51.364Z,13.13
2023-01-26T17:10:19.182Z,12.73
2023-01-26T17:12:46.607Z,14.52
2023-01-26T17:15:14.133Z,13.45
2023-01-26T17:17:42.821Z,14.05
2023-01-26T17:20:19.158Z,14.15
2023-01-26T17:22:48.080Z,14.80
2023-01-26T17:25:18.002Z,14.85
2023-01-26T17:27:46.993Z,16.45
2023-01-26T17:30:14.374Z,17.33
2023-01-26T17:32:51.048Z,16.17
2023-01-26T17:35:20.553Z,15.98
2023-01-26T17:37:50.969Z,16.10
2023-01-26T17:40:21.085Z,16.27
2023-01-26T17:42:49.884Z,16.10
2023-01-26T17:45:18.695Z,16.98
2023-01-26T17:47:48.326Z,16.55
2023-01-26T17:50:16.836Z,17.55
2023-01-26T17:52:45.636Z,18.33
2023-01-26T17:55:16.797Z,17.83
2023-01-26T17:57:54.852Z,17.23
2023-01-26T18:00:23.327Z,16.90
2023-01-26T18:02:52.434Z,17.42
2023-01-26T18:05:20.885Z,18.08
2023-01-26T18:07:49.304Z,18.83
2023-01-26T18:10:17.797Z,16.17
2023-01-26T18:12:51.158Z,19.05
2023-01-26T18:15:19.719Z,19.27
2023-01-26T18:17:50.930Z,18.80
2023-01-26T18:20:18.535Z,18.60
2023-01-26T18:22:46.330Z,19.63
2023-01-26T18:25:14.198Z,19.92
2023-01-26T18:27:42.712Z,18.52
2023-01-26T18:30:11.321Z,20.98
2023-01-26T18:32:39.473Z,20.85
2023-01-26T18:35:07.399Z,21.60
2023-01-26T18:37:35.592Z,20.88
2023-01-26T18:40:08.160Z,22.40
2023-01-26T18:42:35.727Z,21.27
2023-01-26T18:45:03.064Z,19.77
2023-01-26T18:47:32.085Z,22.33
2023-01-26T18:49:59.380Z,20.30
2023-01-26T18:52:27.874Z,20.25
2023-01-26T18:54:55.733Z,19.50
2023-01-26T18:57:23.107Z,20.52
2023-01-26T18:59:50.868Z,20.27
2023-01-26T19:02:18.465Z,19.77
2023-01-26T19:04:45.993Z,19.90
2023-01-26T19:07:15.635Z,20.38
2023-01-26T19:09:42.834Z,19.88
2023-01-26T19:12:10.252Z,20.13
2023-01-26T19:14:37.680Z,19.98
2023-01-26T19:17:05.051Z,20.73
2023-01-26T19:19:32.485Z,20.17
2023-01-26T19:21:59.877Z,18.73
2023-01-26T19:24:27.306Z,18.70
2023-01-26T19:26:54.606Z,20.73
2023-01-26T19:29:22.506Z,20.13
2023-01-26T19:31:49.836Z,20.50
2023-01-26T19:34:17.814Z,21.83
2023-01-26T19:36:48.667Z,22.05
2023-01-26T19:39:16.309Z,21.60
2023-01-26T19:41:46.286Z,21.83
2023-01-26T19:44:13.625Z,19.90
2023-01-26T19:46:41.133Z,20.77
2023-01-26T19:49:12.162Z,20.38
2023-01-26T19:51:40.336Z,19.77
2023-01-26T19:54:07.716Z,19.92
2023-01-26T19:56:38.322Z,20.30
2023-01-26T19:59:08.759Z,18.75
2023-01-26T20:01:36.930Z,20.77
2023-01-26T20:04:08.485Z,19.08
2023-01-26T20:06:38.642Z,17.15
2023-01-26T20:09:10.067Z,17.58
2023-01-26T20:11:37.516Z,15.48
2023-01-26T20:14:08.990Z,16.33
2023-01-26T20:16:38.224Z,15.00
2023-01-26T20:19:06.568Z,16.50
2023-01-26T20:21:34.724Z,15.32
2023-01-26T20:24:06.435Z,15.23
2023-01-26T20:26:35.609Z,14.60
2023-01-26T20:29:03.787Z,14.48
2023-01-26T20:31:33.182Z,13.43
2023-01-26T20:34:01.998Z,13.25
2023-01-26T20:36:30.126Z,12.02
2023-01-26T20:38:57.897Z,12.63
2023-01-26T20:41:28.729Z,11.77
2023-01-26T20:44:00.981Z,10.32
2023-01-26T20:46:38.602Z,10.47
2023-01-26T20:49:08.953Z,9.85
2023-01-26T20:51:38.540Z,9.25
2023-01-26T20:54:08.077Z,7.40
2023-01-26T20:56:37.034Z,6.75
2023-01-26T20:59:06.370Z,6.82
2023-01-26T21:01:39.809Z,7.30
2023-01-26T21:06:36.882Z,4.82
2023-01-26T21:09:04.531Z,4.53
2023-01-26T21:11:33.032Z,4.75
2023-01-26T21:14:02.201Z,3.85
2023-01-26T21:16:30.775Z,3.90
2023-01-26T21:18:58.551Z,3.03
2023-01-26T21:21:26.524Z,3.85
2023-01-26T21:23:54.028Z,3.75
2023-01-26T21:26:24.758Z,3.13
2023-01-26T21:28:54.274Z,3.53
2023-01-26T21:31:25.293Z,3.25
2023-01-26T21:33:53.438Z,3.55
2023-01-26T21:36:31.813Z,3.10
2023-01-26T21:39:00.659Z,3.53
2023-01-26T21:41:51.478Z,4.22
2023-01-26T21:44:24.690Z,3.72
2023-01-26T21:47:01.561Z,4.68
2023-01-26T21:49:29.758Z,4.25
2023-01-26T21:52:15.519Z,3.13
2023-01-26T21:54:42.802Z,3.25
2023-01-26T21:57:30.284Z,2.85
2023-01-26T21:59:57.827Z,3.13
2023-01-26T22:02:25.269Z,2.70
2023-01-26T22:04:52.711Z,3.97
2023-01-26T22:07:20.084Z,3.58
2023-01-26T22:09:47.400Z,4.32
2023-01-26T22:12:14.910Z,7.07
2023-01-26T22:14:42.128Z,4.93
2023-01-26T22:17:09.823Z,4.32
2023-01-26T22:19:37.016Z,2.97
2023-01-26T22:22:04.920Z,3.08
2023-01-26T22:24:32.237Z,4.50
2023-01-26T22:27:03.839Z,3.38
2023-01-26T22:29:35.094Z,3.08
2023-01-26T22:32:03.645Z,3.45
2023-01-26T22:34:33.180Z,3.28
2023-01-26T22:37:01.073Z,3.60
2023-01-26T22:39:28.611Z,3.20
2023-01-26T22:41:56.488Z,3.22
2023-01-26T22:44:23.923Z,3.25
2023-01-26T22:46:53.061Z,3.08
2023-01-26T22:49:20.763Z,3.10
2023-01-26T22:51:48.107Z,4.18
2023-01-26T22:54:18.128Z,3.50
2023-01-26T22:56:45.434Z,3.65
2023-01-26T22:59:12.835Z,3.90
2023-01-26T23:01:40.193Z,4.47
2023-01-26T23:04:07.789Z,4.60
2023-01-26T23:06:35.111Z,4.22
2023-01-26T23:09:05.235Z,4.07
2023-01-26T23:11:32.545Z,4.70
2023-01-26T23:14:00.938Z,5.28
2023-01-26T23:16:29.016Z,5.32
2023-01-26T23:18:58.994Z,5.90
2023-01-26T23:21:27.177Z,5.78
2023-01-26T23:23:54.643Z,6.25
2023-01-26T23:26:22.178Z,5.25
2023-01-26T23:28:49.499Z,6.38
2023-01-26T23:31:18.266Z,6.75
2023-01-26T23:33:47.614Z,6.43
2023-01-26T23:36:16.478Z,6.40
2023-01-26T23:38:46.008Z,5.53
2023-01-26T23:41:14.294Z,6.18
2023-01-26T23:43:41.618Z,6.30
2023-01-26T23:46:10.565Z,7.25
2023-01-26T23:48:38.922Z,6.88
2023-01-26T23:51:09.935Z,6.80
2023-01-26T23:53:37.440Z,7.82
2023-01-26T23:56:14.914Z,6.82
2023-01-26T23:58:42.701Z,6.35
